createdAt,value
2022-09-14T00:01:25.238Z,4.30
2022-09-14T00:04:01.287Z,3.67
2022-09-14T00:06:28.784Z,5.28
2022-09-14T00:08:58.081Z,5.82
2022-09-14T00:11:26.552Z,4.53
2022-09-14T00:16:26.849Z,4.28
2022-09-14T00:18:56.635Z,4.13
2022-09-14T00:21:24.048Z,4.55
2022-09-14T00:23:50.848Z,4.10
2022-09-14T00:26:20.468Z,4.05
2022-09-14T00:28:49.894Z,4.72
2022-09-14T00:31:17.156Z,4.45
2022-09-14T00:33:45.200Z,3.47
2022-09-14T00:36:14.755Z,3.95
2022-09-14T00:38:41.922Z,4.63
2022-09-14T00:41:13.778Z,4.13
2022-09-14T00:43:55.371Z,5.15
2022-09-14T00:46:23.357Z,4.28
2022-09-14T00:48:50.349Z,4.13
2022-09-14T00:51:19.115Z,4.10
2022-09-14T00:53:46.320Z,3.08
2022-09-14T00:56:14.268Z,3.67
2022-09-14T00:58:44.582Z,4.05
2022-09-14T01:01:11.370Z,3.50
2022-09-14T01:03:37.972Z,4.28
2022-09-14T01:06:24.686Z,4.70
2022-09-14T01:09:29.771Z,4.35
2022-09-14T01:12:06.035Z,4.60
2022-09-14T01:14:47.128Z,3.85
2022-09-14T01:17:34.577Z,3.80
2022-09-14T01:20:10.920Z,4.53
2022-09-14T01:22:50.375Z,4.95
2022-09-14T01:25:40.756Z,4.28
2022-09-14T01:28:18.469Z,4.43
2022-09-14T01:30:46.484Z,4.45
2022-09-14T01:33:42.597Z,4.93
2022-09-14T01:36:13.944Z,4.25
2022-09-14T01:38:44.773Z,5.13
2022-09-14T01:41:14.787Z,4.45
2022-09-14T01:43:47.681Z,5.05
2022-09-14T01:46:20.923Z,4.38
2022-09-14T01:49:22.796Z,5.22
2022-09-14T01:51:59.913Z,4.53
2022-09-14T01:54:31.410Z,4.10
2022-09-14T01:57:08.415Z,5.00
2022-09-14T01:59:43.436Z,4.72
2022-09-14T02:02:19.738Z,4.50
2022-09-14T02:04:49.305Z,4.20
2022-09-14T02:07:16.750Z,5.00
2022-09-14T02:09:43.917Z,4.30
2022-09-14T02:12:10.692Z,4.40
2022-09-14T02:14:37.241Z,4.60
2022-09-14T02:17:04.335Z,4.07
2022-09-14T02:19:35.263Z,4.20
2022-09-14T02:22:01.864Z,4.35
2022-09-14T02:24:28.969Z,3.78
2022-09-14T02:26:58.179Z,3.53
2022-09-14T02:29:24.713Z,4.03
2022-09-14T02:32:11.463Z,3.80
2022-09-14T02:35:15.500Z,3.88
2022-09-14T02:38:04.603Z,4.55
2022-09-14T02:40:39.167Z,4.68
2022-09-14T02:43:14.580Z,4.85
2022-09-14T02:46:31.640Z,5.10
2022-09-14T02:49:12.579Z,4.05
2022-09-14T02:51:53.409Z,4.50
2022-09-14T02:54:33.148Z,4.47
2022-09-14T02:57:01.126Z,4.22
2022-09-14T02:59:28.199Z,5.18
2022-09-14T03:01:56.053Z,5.05
2022-09-14T03:04:22.907Z,4.97
2022-09-14T03:06:49.455Z,3.95
2022-09-14T03:09:15.945Z,4.35
2022-09-14T03:11:42.405Z,4.20
2022-09-14T03:14:10.675Z,4.80
2022-09-14T03:16:38.457Z,4.97
2022-09-14T03:19:05.936Z,5.23
2022-09-14T03:21:32.712Z,4.95
2022-09-14T03:23:59.345Z,4.72
2022-09-14T03:26:28.965Z,4.68
2022-09-14T03:28:57.816Z,4.00
2022-09-14T03:31:26.209Z,4.72
2022-09-14T03:33:58.168Z,4.65
2022-09-14T03:36:26.493Z,4.47
2022-09-14T03:38:54.421Z,4.68
2022-09-14T03:41:22.723Z,4.53
2022-09-14T03:43:49.542Z,5.63
2022-09-14T03:46:20.607Z,5.20
2022-09-14T03:48:47.324Z,5.55
2022-09-14T03:51:15.137Z,4.85
2022-09-14T03:53:43.419Z,5.85
2022-09-14T03:56:12.737Z,4.40
2022-09-14T03:58:39.521Z,5.35
2022-09-14T04:01:07.805Z,4.40
2022-09-14T04:03:34.384Z,3.58
2022-09-14T04:06:00.969Z,3.92
2022-09-14T04:08:27.483Z,5.28
2022-09-14T04:10:53.963Z,4.03
2022-09-14T04:13:20.494Z,5.30
2022-09-14T04:15:59.631Z,5.10
2022-09-14T04:18:27.222Z,4.60
2022-09-14T04:20:58.424Z,4.78
2022-09-14T04:23:25.838Z,4.20
2022-09-14T04:25:52.984Z,4.57
2022-09-14T04:28:20.786Z,3.88
2022-09-14T04:30:58.688Z,3.95
2022-09-14T04:33:26.143Z,4.80
2022-09-14T04:36:07.990Z,4.22
2022-09-14T04:38:35.792Z,4.88
2022-09-14T04:41:06.283Z,2.97
2022-09-14T04:43:32.809Z,4.20
2022-09-14T04:46:16.964Z,5.00
2022-09-14T04:48:43.895Z,3.80
2022-09-14T04:51:16.987Z,3.72
2022-09-14T04:53:44.656Z,4.22
2022-09-14T04:56:13.280Z,4.00
2022-09-14T04:58:46.237Z,4.10
2022-09-14T05:01:19.154Z,3.92
2022-09-14T05:03:45.801Z,4.47
2022-09-14T05:06:18.597Z,4.35
2022-09-14T05:08:45.896Z,4.93
2022-09-14T05:11:15.555Z,5.80
2022-09-14T05:13:46.254Z,6.13
2022-09-14T05:16:18.450Z,5.97
2022-09-14T05:18:45.326Z,6.28
2022-09-14T05:21:16.800Z,5.50
2022-09-14T05:23:43.984Z,5.30
2022-09-14T05:26:11.174Z,6.35
2022-09-14T05:28:38.215Z,6.93
2022-09-14T05:31:09.627Z,5.82
2022-09-14T05:33:36.851Z,5.28
2022-09-14T05:36:05.988Z,5.45
2022-09-14T05:38:34.812Z,5.03
2022-09-14T05:41:01.725Z,4.78
2022-09-14T05:43:29.443Z,4.57
2022-09-14T05:45:56.842Z,3.67
2022-09-14T05:48:23.389Z,5.18
2022-09-14T05:50:58.209Z,3.78
2022-09-14T05:53:24.768Z,4.22
2022-09-14T05:56:01.900Z,4.75
2022-09-14T05:58:28.409Z,5.50
2022-09-14T06:00:55.132Z,4.88
2022-09-14T06:03:21.682Z,5.25
2022-09-14T06:05:48.309Z,5.53
2022-09-14T06:08:14.976Z,6.40
2022-09-14T06:10:41.597Z,5.65
2022-09-14T06:13:08.168Z,7.03
2022-09-14T06:15:35.109Z,7.22
2022-09-14T06:18:01.627Z,5.55
2022-09-14T06:20:28.183Z,5.90
2022-09-14T06:22:55.492Z,6.85
2022-09-14T06:25:22.038Z,6.45
2022-09-14T06:27:48.535Z,5.80
2022-09-14T06:30:16.396Z,6.43
2022-09-14T06:32:42.911Z,4.13
2022-09-14T06:35:12.439Z,4.80
2022-09-14T06:37:39.341Z,4.57
2022-09-14T06:40:06.793Z,5.47
2022-09-14T06:42:33.314Z,6.23
2022-09-14T06:44:59.800Z,6.28
2022-09-14T06:47:31.145Z,5.20
2022-09-14T06:49:57.827Z,5.63
2022-09-14T06:52:24.383Z,4.88
2022-09-14T06:54:51.100Z,4.68
2022-09-14T06:57:17.757Z,5.10
2022-09-14T06:59:44.705Z,5.13
2022-09-14T07:02:13.757Z,5.15
2022-09-14T07:04:40.302Z,5.55
2022-09-14T07:07:06.801Z,6.80
2022-09-14T07:09:33.373Z,6.63
2022-09-14T07:11:59.955Z,6.85
2022-09-14T07:14:30.368Z,6.72
2022-09-14T07:16:58.659Z,6.97
2022-09-14T07:19:25.164Z,7.53
2022-09-14T07:21:53.871Z,6.10
2022-09-14T07:24:20.784Z,7.20
2022-09-14T07:26:47.556Z,7.05
2022-09-14T07:29:20.033Z,6.43
2022-09-14T07:31:49.617Z,9.13
2022-09-14T07:34:16.534Z,8.13
2022-09-14T07:36:43.588Z,7.72
2022-09-14T07:39:13.173Z,8.80
2022-09-14T07:41:40.157Z,9.32
2022-09-14T07:44:08.274Z,9.48
2022-09-14T07:46:40.470Z,8.57
2022-09-14T07:49:08.472Z,8.27
2022-09-14T07:54:04.664Z,8.48
2022-09-14T07:59:11.860Z,7.90
2022-09-14T08:01:44.169Z,6.93
2022-09-14T08:04:11.053Z,5.95
2022-09-14T08:06:37.732Z,6.53
2022-09-14T08:09:08.537Z,6.72
2022-09-14T08:11:35.549Z,6.43
2022-09-14T08:14:05.589Z,5.37
2022-09-14T08:16:34.763Z,6.05
2022-09-14T08:19:05.780Z,7.10
2022-09-14T08:21:33.159Z,4.97
2022-09-14T08:24:02.413Z,4.85
2022-09-14T08:26:30.124Z,5.80
2022-09-14T08:31:25.796Z,4.72
2022-09-14T08:33:56.672Z,5.15
2022-09-14T08:36:24.587Z,4.40
2022-09-14T08:38:51.225Z,4.90
2022-09-14T08:41:35.648Z,5.57
2022-09-14T08:44:17.216Z,3.92
2022-09-14T08:47:10.008Z,4.97
2022-09-14T08:50:18.398Z,6.47
2022-09-14T08:52:50.128Z,6.03
2022-09-14T08:55:22.413Z,6.45
2022-09-14T08:58:04.331Z,5.30
2022-09-14T09:00:52.005Z,5.60
2022-09-14T09:03:56.348Z,5.65
2022-09-14T09:06:46.307Z,5.70
2022-09-14T09:09:24.804Z,7.13
2022-09-14T09:11:55.240Z,6.03
2022-09-14T09:14:44.135Z,6.57
2022-09-14T09:17:17.537Z,6.07
2022-09-14T09:20:15.787Z,6.90
2022-09-14T09:22:47.607Z,5.82
2022-09-14T09:25:28.924Z,5.03
2022-09-14T09:28:02.304Z,4.90
2022-09-14T09:30:30.024Z,5.20
2022-09-14T09:32:57.561Z,5.28
2022-09-14T09:35:24.833Z,6.50
2022-09-14T09:37:51.605Z,6.68
2022-09-14T09:40:25.573Z,7.70
2022-09-14T09:43:18.675Z,6.03
2022-09-14T09:46:00.687Z,6.82
2022-09-14T09:48:33.445Z,7.38
2022-09-14T09:51:25.503Z,8.00
2022-09-14T09:53:55.674Z,9.95
2022-09-14T09:56:53.774Z,8.30
2022-09-14T09:59:32.341Z,7.63
2022-09-14T10:02:17.720Z,7.72
2022-09-14T10:05:01.342Z,7.53
2022-09-14T10:07:29.687Z,6.82
2022-09-14T10:10:12.186Z,7.05
2022-09-14T10:12:45.866Z,7.47
2022-09-14T10:15:27.812Z,6.75
2022-09-14T10:18:17.957Z,5.63
2022-09-14T10:21:05.960Z,5.93
2022-09-14T10:23:38.282Z,6.70
2022-09-14T10:26:13.946Z,5.10
2022-09-14T10:28:45.919Z,4.43
2022-09-14T10:31:16.011Z,5.55
2022-09-14T10:33:42.896Z,5.35
2022-09-14T10:36:29.266Z,4.78
2022-09-14T10:39:26.441Z,4.15
2022-09-14T10:45:11.000Z,4.35
2022-09-14T10:47:49.677Z,4.57
2022-09-14T10:50:53.839Z,4.30
2022-09-14T10:53:48.970Z,3.78
2022-09-14T10:56:58.737Z,4.57
2022-09-14T10:59:49.481Z,4.07
2022-09-14T11:02:44.279Z,5.50
2022-09-14T11:05:23.108Z,5.45
2022-09-14T11:08:05.697Z,4.70
2022-09-14T11:11:08.087Z,4.30
2022-09-14T11:14:07.232Z,4.10
2022-09-14T11:16:52.332Z,3.65
2022-09-14T11:19:18.793Z,4.57
2022-09-14T11:22:20.519Z,4.00
2022-09-14T11:25:11.403Z,5.15
2022-09-14T11:28:02.531Z,3.83
2022-09-14T11:30:45.675Z,3.35
2022-09-14T11:33:43.610Z,3.03
2022-09-14T11:36:36.975Z,2.53
2022-09-14T11:39:24.606Z,2.40
2022-09-14T11:42:01.638Z,2.58
2022-09-14T11:44:36.133Z,2.70
2022-09-14T11:47:33.213Z,2.80
2022-09-14T11:50:11.536Z,3.28
2022-09-14T11:52:38.060Z,2.60
2022-09-14T11:55:18.274Z,2.72
2022-09-14T11:57:46.766Z,1.98
2022-09-14T12:00:23.146Z,2.17
2022-09-14T12:03:16.951Z,2.47
2022-09-14T12:05:44.954Z,2.20
2022-09-14T12:08:28.171Z,2.10
2022-09-14T12:11:09.512Z,2.00
2022-09-14T12:13:37.354Z,2.30
2022-09-14T12:18:33.370Z,2.70
2022-09-14T12:21:04.749Z,2.75
2022-09-14T12:23:37.433Z,2.08
2022-09-14T12:26:06.911Z,2.17
2022-09-14T12:28:36.404Z,2.08
2022-09-14T12:31:03.085Z,1.92
2022-09-14T12:33:32.425Z,1.75
2022-09-14T12:36:12.014Z,2.00
2022-09-14T12:38:38.487Z,1.73
2022-09-14T12:41:10.918Z,2.03
2022-09-14T12:43:37.657Z,2.17
2022-09-14T12:46:10.191Z,2.20
2022-09-14T12:48:48.725Z,2.13
2022-09-14T12:51:33.903Z,3.67
2022-09-14T12:54:09.450Z,2.17
2022-09-14T12:57:04.566Z,2.00
2022-09-14T13:00:22.582Z,3.60
2022-09-14T13:03:16.334Z,1.85
2022-09-14T13:05:45.195Z,2.70
2022-09-14T13:08:13.310Z,2.83
2022-09-14T13:10:46.724Z,3.13
2022-09-14T13:13:26.942Z,1.90
2022-09-14T13:15:59.609Z,2.15
2022-09-14T13:18:32.553Z,3.08
2022-09-14T13:21:02.682Z,2.78
2022-09-14T13:23:36.745Z,2.00
2022-09-14T13:26:19.546Z,2.03
2022-09-14T13:28:48.401Z,2.38
2022-09-14T13:31:21.338Z,2.35
2022-09-14T13:33:51.280Z,2.78
2022-09-14T13:36:23.103Z,3.10
2022-09-14T13:38:51.143Z,2.65
2022-09-14T13:41:19.706Z,2.88
2022-09-14T13:43:49.920Z,2.20
2022-09-14T13:46:20.281Z,3.83
2022-09-14T13:48:47.920Z,1.88
2022-09-14T13:51:15.549Z,2.70
2022-09-14T13:53:49.514Z,2.42
2022-09-14T13:56:28.101Z,3.10
2022-09-14T13:59:12.858Z,2.58
2022-09-14T14:01:43.488Z,3.88
2022-09-14T14:04:35.859Z,2.65
2022-09-14T14:07:19.701Z,2.88
2022-09-14T14:09:53.385Z,2.72
2022-09-14T14:12:26.523Z,2.90
2022-09-14T14:15:01.818Z,2.70
2022-09-14T14:17:28.291Z,2.83
2022-09-14T14:19:57.674Z,3.70
2022-09-14T14:22:33.747Z,4.38
2022-09-14T14:25:13.983Z,3.53
2022-09-14T14:27:47.558Z,3.67
2022-09-14T14:30:20.082Z,2.92
2022-09-14T14:32:51.151Z,2.72
2022-09-14T14:35:22.421Z,3.05
2022-09-14T14:37:50.605Z,4.10
2022-09-14T14:40:18.131Z,4.50
2022-09-14T14:42:45.521Z,2.42
2022-09-14T14:45:19.231Z,2.90
2022-09-14T14:47:47.282Z,2.60
2022-09-14T14:52:44.074Z,2.85
2022-09-14T14:55:10.980Z,2.10
2022-09-14T14:57:38.907Z,2.45
2022-09-14T15:02:34.853Z,3.50
2022-09-14T15:05:01.383Z,4.93
2022-09-14T15:07:27.917Z,2.80
2022-09-14T15:09:57.837Z,3.55
2022-09-14T15:12:24.416Z,3.47
2022-09-14T15:14:50.980Z,4.35
2022-09-14T15:17:17.691Z,4.38
2022-09-14T15:19:44.313Z,5.35
2022-09-14T15:22:11.148Z,4.22
2022-09-14T15:24:37.672Z,4.05
2022-09-14T15:27:05.151Z,4.93
2022-09-14T15:29:31.760Z,4.97
2022-09-14T15:31:58.709Z,4.05
2022-09-14T15:34:25.306Z,4.97
2022-09-14T15:36:53.661Z,5.20
2022-09-14T15:39:23.365Z,4.50
2022-09-14T15:41:50.740Z,4.10
2022-09-14T15:44:17.817Z,3.22
2022-09-14T15:46:45.287Z,3.60
2022-09-14T15:49:14.344Z,3.30
2022-09-14T15:51:43.014Z,3.17
2022-09-14T15:54:09.845Z,3.80
2022-09-14T15:56:36.993Z,4.28
2022-09-14T15:59:04.472Z,3.42
2022-09-14T16:01:31.975Z,4.22
2022-09-14T16:04:03.478Z,4.07
2022-09-14T16:06:30.633Z,3.85
2022-09-14T16:08:57.975Z,5.28
2022-09-14T16:11:24.507Z,5.23
2022-09-14T16:13:51.397Z,4.97
2022-09-14T16:16:19.703Z,5.57
2022-09-14T16:18:47.377Z,7.30
2022-09-14T16:21:23.430Z,7.28
2022-09-14T16:24:03.506Z,6.63
2022-09-14T16:26:32.931Z,6.30
2022-09-14T16:28:59.791Z,6.57
2022-09-14T16:31:30.962Z,5.97
2022-09-14T16:34:02.223Z,5.65
2022-09-14T16:36:32.529Z,6.97
2022-09-14T16:39:02.187Z,5.70
2022-09-14T16:41:29.664Z,6.78
2022-09-14T16:44:01.620Z,6.53
2022-09-14T16:46:30.079Z,7.68
2022-09-14T16:48:58.656Z,6.88
2022-09-14T16:51:28.364Z,5.97
2022-09-14T16:53:55.240Z,7.43
2022-09-14T16:56:24.040Z,6.93
2022-09-14T16:58:52.593Z,7.13
2022-09-14T17:01:22.108Z,5.93
2022-09-14T17:03:50.597Z,7.22
2022-09-14T17:06:19.975Z,7.55
2022-09-14T17:08:47.316Z,6.50
2022-09-14T17:11:15.146Z,5.90
2022-09-14T17:13:43.668Z,5.65
2022-09-14T17:16:16.117Z,5.80
2022-09-14T17:18:44.335Z,5.90
2022-09-14T17:21:16.401Z,6.28
2022-09-14T17:23:43.535Z,6.38
2022-09-14T17:26:12.444Z,6.40
2022-09-14T17:28:39.388Z,5.68
2022-09-14T17:31:08.217Z,6.28
2022-09-14T17:33:35.733Z,4.60
2022-09-14T17:36:04.254Z,4.53
2022-09-14T17:38:36.699Z,4.53
2022-09-14T17:41:08.782Z,4.53
2022-09-14T17:43:36.532Z,4.43
2022-09-14T17:46:04.662Z,4.50
2022-09-14T17:48:36.610Z,4.00
2022-09-14T17:51:08.647Z,3.72
2022-09-14T17:53:40.046Z,4.93
2022-09-14T17:56:09.005Z,3.92
2022-09-14T17:58:36.522Z,4.05
2022-09-14T18:01:08.480Z,3.63
2022-09-14T18:03:39.442Z,3.83
2022-09-14T18:06:08.458Z,3.88
2022-09-14T18:08:35.760Z,3.75
2022-09-14T18:11:07.642Z,4.70
2022-09-14T18:13:34.517Z,4.18
2022-09-14T18:16:01.543Z,3.63
2022-09-14T18:18:28.110Z,3.33
2022-09-14T18:20:54.577Z,3.85
2022-09-14T18:23:21.586Z,3.13
2022-09-14T18:25:48.117Z,3.67
2022-09-14T18:28:14.712Z,3.67
2022-09-14T18:30:43.622Z,4.18
2022-09-14T18:33:10.488Z,4.50
2022-09-14T18:35:38.301Z,3.25
2022-09-14T18:38:06.623Z,4.35
2022-09-14T18:43:05.648Z,4.32
2022-09-14T18:45:33.913Z,5.53
2022-09-14T18:48:00.437Z,4.93
2022-09-14T18:50:26.963Z,5.45
2022-09-14T18:52:53.470Z,5.32
2022-09-14T18:55:20.063Z,5.47
2022-09-14T18:57:47.688Z,5.40
2022-09-14T19:00:18.466Z,6.80
2022-09-14T19:02:50.837Z,6.05
2022-09-14T19:05:17.368Z,6.00
2022-09-14T19:07:43.871Z,7.28
2022-09-14T19:10:11.717Z,5.82
2022-09-14T19:12:38.489Z,7.57
2022-09-14T19:15:05.773Z,5.30
2022-09-14T19:17:32.497Z,7.20
2022-09-14T19:19:59.141Z,6.07
2022-09-14T19:22:26.258Z,6.43
2022-09-14T19:24:52.803Z,5.95
2022-09-14T19:27:19.512Z,5.70
2022-09-14T19:29:46.010Z,5.38
2022-09-14T19:32:13.787Z,4.50
2022-09-14T19:34:40.337Z,6.88
2022-09-14T19:37:06.997Z,5.35
2022-09-14T19:39:33.507Z,4.60
2022-09-14T19:42:00.104Z,3.65
2022-09-14T19:44:26.645Z,3.70
2022-09-14T19:46:53.274Z,4.25
2022-09-14T19:49:22.231Z,4.30
2022-09-14T19:51:49.278Z,4.38
2022-09-14T19:54:16.424Z,4.55
2022-09-14T19:56:43.701Z,4.07
2022-09-14T19:59:10.602Z,4.35
2022-09-14T20:01:39.194Z,4.05
2022-09-14T20:04:07.236Z,4.05
2022-09-14T20:06:36.763Z,3.70
2022-09-14T20:09:06.425Z,4.40
2022-09-14T20:11:34.493Z,5.70
2022-09-14T20:14:03.386Z,4.95
2022-09-14T20:16:38.428Z,4.50
2022-09-14T20:19:09.458Z,3.92
2022-09-14T20:21:37.380Z,4.68
2022-09-14T20:24:15.638Z,5.03
2022-09-14T20:26:42.821Z,5.00
2022-09-14T20:29:09.364Z,4.43
2022-09-14T20:31:35.951Z,4.40
2022-09-14T20:34:03.112Z,5.18
2022-09-14T20:36:29.896Z,4.65
2022-09-14T20:38:59.164Z,4.13
2022-09-14T20:41:29.136Z,3.83
2022-09-14T20:43:56.369Z,4.55
2022-09-14T20:46:26.045Z,3.58
2022-09-14T20:48:53.841Z,3.60
2022-09-14T20:51:23.094Z,3.95
2022-09-14T20:53:49.727Z,3.80
2022-09-14T20:56:21.620Z,3.72
2022-09-14T20:58:48.722Z,4.25
2022-09-14T21:01:17.939Z,3.10
2022-09-14T21:03:46.777Z,3.58
2022-09-14T21:06:16.177Z,3.78
2022-09-14T21:08:43.227Z,3.22
2022-09-14T21:11:13.412Z,3.75
2022-09-14T21:13:40.228Z,3.60
2022-09-14T21:16:22.300Z,3.22
2022-09-14T21:18:53.513Z,3.63
2022-09-14T21:21:20.080Z,3.30
2022-09-14T21:23:48.620Z,3.10
2022-09-14T21:26:15.952Z,3.20
2022-09-14T21:28:42.758Z,3.03
2022-09-14T21:31:14.011Z,3.63
2022-09-14T21:33:42.176Z,3.67
2022-09-14T21:36:11.621Z,3.78
2022-09-14T21:38:38.695Z,3.13
2022-09-14T21:41:07.580Z,3.60
2022-09-14T21:43:41.619Z,3.55
2022-09-14T21:46:09.913Z,4.20
2022-09-14T21:48:37.431Z,3.55
2022-09-14T21:51:21.447Z,2.97
2022-09-14T21:53:53.090Z,3.70
2022-09-14T21:56:21.278Z,3.38
2022-09-14T21:58:53.144Z,3.58
2022-09-14T22:01:21.590Z,2.92
2022-09-14T22:08:43.929Z,2.90
2022-09-14T22:11:13.277Z,2.97
2022-09-14T22:13:40.563Z,2.60
2022-09-14T22:16:15.216Z,3.38
2022-09-14T22:18:48.941Z,3.00
2022-09-14T22:21:16.580Z,3.28
2022-09-14T22:23:43.400Z,3.00
2022-09-14T22:26:11.759Z,3.92
2022-09-14T22:28:42.015Z,3.05
2022-09-14T22:31:08.940Z,4.00
2022-09-14T22:33:36.071Z,2.75
2022-09-14T22:36:03.990Z,3.50
2022-09-14T22:38:33.607Z,3.20
2022-09-14T22:41:06.257Z,2.90
2022-09-14T22:43:34.569Z,3.25
2022-09-14T22:46:01.713Z,3.30
2022-09-14T22:48:28.696Z,2.83
2022-09-14T22:50:56.787Z,3.63
2022-09-14T22:53:25.146Z,4.10
2022-09-14T22:55:52.095Z,3.00
2022-09-14T22:58:21.171Z,3.00
2022-09-14T23:00:48.183Z,3.20
2022-09-14T23:03:16.226Z,3.78
2022-09-14T23:05:55.567Z,2.90
2022-09-14T23:08:22.412Z,3.40
2022-09-14T23:10:49.699Z,4.00
2022-09-14T23:13:16.743Z,3.83
2022-09-14T23:15:43.925Z,3.67
2022-09-14T23:18:10.964Z,3.67
2022-09-14T23:20:39.054Z,3.00
2022-09-14T23:23:05.859Z,4.25
2022-09-14T23:25:37.379Z,3.45
2022-09-14T23:28:06.727Z,3.80
2022-09-14T23:30:33.654Z,3.13
2022-09-14T23:33:00.942Z,4.43
2022-09-14T23:35:28.501Z,3.58
2022-09-14T23:37:55.724Z,3.17
2022-09-14T23:40:23.147Z,2.97
2022-09-14T23:42:49.677Z,2.97
2022-09-14T23:45:16.286Z,3.13
2022-09-14T23:47:42.808Z,3.35
2022-09-14T23:50:09.447Z,2.63
2022-09-14T23:52:36.848Z,2.97
2022-09-14T23:55:03.836Z,2.85
2022-09-14T23:57:30.528Z,2.92
2022-09-14T23:59:57.943Z,3.20
